Airports Cyprus Larnaca International Airport

Larnaca International Airport (LCLK / LCA)

Facts about Larnaca International Airport

Name Larnaca International Airport
City Larnaca
Country Cyprus
ICAO code LCLK
IATA code LCA
Elevation 2.4384 meters (8 feet)

Weather

METAR

Metar data retrieved Friday, 19 July 2024 at 23:25 UTC (16 minutes ago)

LCLK 192300Z 20004KT CAVOK 28/26 Q1000 NOSIG

Live traffic

Navigraph Charts (account required)